sensor_id;sensor_type;location;lat;lon;timestamp;P1;durP1;ratioP1;P2;durP2;ratioP2
34928;SDS011;21133;48.048;7.724;2024-01-27T00:01:38;4.83;;;2.90;;
34928;SDS011;21133;48.048;7.724;2024-01-27T00:04:04;2.57;;;2.40;;
34928;SDS011;21133;48.048;7.724;2024-01-27T00:06:30;2.30;;;2.20;;
34928;SDS011;21133;48.048;7.724;2024-01-27T00:08:56;2.77;;;2.50;;
34928;SDS011;21133;48.048;7.724;2024-01-27T00:11:22;4.63;;;2.37;;
34928;SDS011;21133;48.048;7.724;2024-01-27T00:13:51;9.27;;;3.90;;
34928;SDS011;21133;48.048;7.724;2024-01-27T00:16:17;3.50;;;3.20;;
34928;SDS011;21133;48.048;7.724;2024-01-27T00:18:43;3.00;;;2.87;;
34928;SDS011;21133;48.048;7.724;2024-01-27T00:21:09;3.80;;;3.50;;
34928;SDS011;21133;48.048;7.724;2024-01-27T00:23:35;4.20;;;3.80;;
34928;SDS011;21133;48.048;7.724;2024-01-27T00:26:01;2.93;;;2.20;;
34928;SDS011;21133;48.048;7.724;2024-01-27T00:28:27;3.07;;;2.90;;
34928;SDS011;21133;48.048;7.724;2024-01-27T00:30:53;2.23;;;2.13;;
34928;SDS011;21133;48.048;7.724;2024-01-27T00:33:19;2.30;;;2.00;;
34928;SDS011;21133;48.048;7.724;2024-01-27T00:35:45;2.57;;;2.37;;
34928;SDS011;21133;48.048;7.724;2024-01-27T00:38:11;2.50;;;2.30;;
34928;SDS011;21133;48.048;7.724;2024-01-27T00:40:37;3.07;;;2.97;;
34928;SDS011;21133;48.048;7.724;2024-01-27T00:43:03;2.13;;;2.13;;
34928;SDS011;21133;48.048;7.724;2024-01-27T00:45:29;2.30;;;2.10;;
34928;SDS011;21133;48.048;7.724;2024-01-27T00:47:56;2.70;;;2.50;;
34928;SDS011;21133;48.048;7.724;2024-01-27T00:50:22;2.20;;;2.20;;
34928;SDS011;21133;48.048;7.724;2024-01-27T00:52:48;1.93;;;1.93;;
34928;SDS011;21133;48.048;7.724;2024-01-27T00:55:14;3.00;;;2.90;;
34928;SDS011;21133;48.048;7.724;2024-01-27T00:57:40;7.13;;;2.87;;
34928;SDS011;21133;48.048;7.724;2024-01-27T01:00:06;6.70;;;2.53;;
34928;SDS011;21133;48.048;7.724;2024-01-27T01:02:33;2.87;;;2.73;;
34928;SDS011;21133;48.048;7.724;2024-01-27T01:04:59;3.27;;;3.00;;
34928;SDS011;21133;48.048;7.724;2024-01-27T01:07:25;2.80;;;2.70;;
34928;SDS011;21133;48.048;7.724;2024-01-27T01:09:51;2.50;;;2.40;;
34928;SDS011;21133;48.048;7.724;2024-01-27T01:12:17;2.10;;;2.00;;
34928;SDS011;21133;48.048;7.724;2024-01-27T01:14:43;2.77;;;2.57;;
34928;SDS011;21133;48.048;7.724;2024-01-27T01:17:09;2.30;;;2.30;;
34928;SDS011;21133;48.048;7.724;2024-01-27T01:19:38;3.23;;;2.40;;
34928;SDS011;21133;48.048;7.724;2024-01-27T01:22:04;2.10;;;2.00;;
34928;SDS011;21133;48.048;7.724;2024-01-27T01:24:30;2.63;;;2.43;;
34928;SDS011;21133;48.048;7.724;2024-01-27T01:26:56;6.37;;;5.13;;
34928;SDS011;21133;48.048;7.724;2024-01-27T01:29:22;7.43;;;3.90;;
34928;SDS011;21133;48.048;7.724;2024-01-27T01:31:48;13.07;;;7.13;;
34928;SDS011;21133;48.048;7.724;2024-01-27T01:34:14;9.07;;;6.60;;
34928;SDS011;21133;48.048;7.724;2024-01-27T01:36:41;3.30;;;3.10;;
34928;SDS011;21133;48.048;7.724;2024-01-27T01:39:07;2.73;;;2.67;;
34928;SDS011;21133;48.048;7.724;2024-01-27T01:41:33;2.40;;;2.30;;
34928;SDS011;21133;48.048;7.724;2024-01-27T01:43:59;2.33;;;2.23;;
34928;SDS011;21133;48.048;7.724;2024-01-27T01:46:25;2.10;;;2.00;;
34928;SDS011;21133;48.048;7.724;2024-01-27T01:48:51;2.23;;;2.13;;
34928;SDS011;21133;48.048;7.724;2024-01-27T01:51:18;1.80;;;1.80;;
34928;SDS011;21133;48.048;7.724;2024-01-27T01:53:44;6.63;;;1.93;;
34928;SDS011;21133;48.048;7.724;2024-01-27T01:56:13;2.07;;;1.97;;
34928;SDS011;21133;48.048;7.724;2024-01-27T01:58:39;1.47;;;1.47;;
34928;SDS011;21133;48.048;7.724;2024-01-27T02:01:05;1.70;;;1.57;;
34928;SDS011;21133;48.048;7.724;2024-01-27T02:03:31;2.20;;;2.10;;
34928;SDS011;21133;48.048;7.724;2024-01-27T02:05:57;2.93;;;2.83;;
34928;SDS011;21133;48.048;7.724;2024-01-27T02:08:23;2.47;;;2.37;;
34928;SDS011;21133;48.048;7.724;2024-01-27T02:10:49;1.97;;;1.97;;
34928;SDS011;21133;48.048;7.724;2024-01-27T02:13:18;2.07;;;1.97;;
34928;SDS011;21133;48.048;7.724;2024-01-27T02:15:45;1.90;;;1.80;;
34928;SDS011;21133;48.048;7.724;2024-01-27T02:18:11;1.90;;;1.80;;
34928;SDS011;21133;48.048;7.724;2024-01-27T02:20:37;2.10;;;1.50;;
34928;SDS011;21133;48.048;7.724;2024-01-27T02:23:03;3.07;;;1.30;;
34928;SDS011;21133;48.048;7.724;2024-01-27T02:25:30;2.27;;;1.93;;
34928;SDS011;21133;48.048;7.724;2024-01-27T02:27:56;1.47;;;1.47;;
34928;SDS011;21133;48.048;7.724;2024-01-27T02:30:22;1.50;;;1.40;;
34928;SDS011;21133;48.048;7.724;2024-01-27T02:32:48;2.00;;;1.83;;
34928;SDS011;21133;48.048;7.724;2024-01-27T02:35:14;1.97;;;1.60;;
34928;SDS011;21133;48.048;7.724;2024-01-27T02:37:41;7.23;;;1.60;;
34928;SDS011;21133;48.048;7.724;2024-01-27T02:40:07;1.23;;;1.13;;
34928;SDS011;21133;48.048;7.724;2024-01-27T02:42:34;4.57;;;1.53;;
34928;SDS011;21133;48.048;7.724;2024-01-27T02:45:00;1.87;;;1.77;;
34928;SDS011;21133;48.048;7.724;2024-01-27T02:47:27;1.60;;;1.50;;
34928;SDS011;21133;48.048;7.724;2024-01-27T02:49:53;3.43;;;1.50;;
34928;SDS011;21133;48.048;7.724;2024-01-27T02:52:19;2.10;;;1.83;;
34928;SDS011;21133;48.048;7.724;2024-01-27T02:54:45;2.10;;;1.30;;
34928;SDS011;21133;48.048;7.724;2024-01-27T02:57:11;1.47;;;1.37;;
34928;SDS011;21133;48.048;7.724;2024-01-27T02:59:38;1.50;;;1.40;;
34928;SDS011;21133;48.048;7.724;2024-01-27T03:02:07;1.50;;;1.50;;
34928;SDS011;21133;48.048;7.724;2024-01-27T03:04:33;3.07;;;1.80;;
34928;SDS011;21133;48.048;7.724;2024-01-27T03:06:59;1.27;;;1.27;;
34928;SDS011;21133;48.048;7.724;2024-01-27T03:09:25;1.87;;;1.77;;
34928;SDS011;21133;48.048;7.724;2024-01-27T03:11:51;2.00;;;1.83;;
34928;SDS011;21133;48.048;7.724;2024-01-27T03:14:17;1.60;;;1.50;;
34928;SDS011;21133;48.048;7.724;2024-01-27T03:16:43;1.40;;;1.30;;
34928;SDS011;21133;48.048;7.724;2024-01-27T03:19:12;4.53;;;1.20;;
34928;SDS011;21133;48.048;7.724;2024-01-27T03:21:38;1.90;;;1.40;;
34928;SDS011;21133;48.048;7.724;2024-01-27T03:24:04;1.90;;;1.47;;
34928;SDS011;21133;48.048;7.724;2024-01-27T03:26:30;3.50;;;1.40;;
34928;SDS011;21133;48.048;7.724;2024-01-27T03:28:56;6.80;;;1.97;;
34928;SDS011;21133;48.048;7.724;2024-01-27T03:31:22;1.50;;;1.50;;
34928;SDS011;21133;48.048;7.724;2024-01-27T03:33:48;1.50;;;1.40;;
34928;SDS011;21133;48.048;7.724;2024-01-27T03:36:14;1.20;;;1.10;;
34928;SDS011;21133;48.048;7.724;2024-01-27T03:38:41;1.33;;;1.33;;
34928;SDS011;21133;48.048;7.724;2024-01-27T03:41:08;1.20;;;1.20;;
34928;SDS011;21133;48.048;7.724;2024-01-27T03:43:34;1.60;;;1.60;;
34928;SDS011;21133;48.048;7.724;2024-01-27T03:46:01;1.20;;;1.20;;
34928;SDS011;21133;48.048;7.724;2024-01-27T03:48:28;3.83;;;1.10;;
34928;SDS011;21133;48.048;7.724;2024-01-27T03:50:54;2.30;;;1.40;;
34928;SDS011;21133;48.048;7.724;2024-01-27T03:53:20;1.20;;;1.07;;
34928;SDS011;21133;48.048;7.724;2024-01-27T03:55:46;2.03;;;1.93;;
34928;SDS011;21133;48.048;7.724;2024-01-27T03:58:12;6.43;;;1.20;;
34928;SDS011;21133;48.048;7.724;2024-01-27T04:00:38;2.30;;;1.13;;
34928;SDS011;21133;48.048;7.724;2024-01-27T04:03:04;2.50;;;1.40;;
34928;SDS011;21133;48.048;7.724;2024-01-27T04:05:30;1.00;;;1.00;;
34928;SDS011;21133;48.048;7.724;2024-01-27T04:07:56;0.97;;;0.93;;
34928;SDS011;21133;48.048;7.724;2024-01-27T04:10:22;0.87;;;0.87;;
34928;SDS011;21133;48.048;7.724;2024-01-27T04:12:48;1.10;;;1.07;;
34928;SDS011;21133;48.048;7.724;2024-01-27T04:15:14;2.87;;;1.30;;
34928;SDS011;21133;48.048;7.724;2024-01-27T04:17:41;1.13;;;1.13;;
34928;SDS011;21133;48.048;7.724;2024-01-27T04:20:07;1.10;;;1.10;;
34928;SDS011;21133;48.048;7.724;2024-01-27T04:22:34;1.60;;;1.50;;
34928;SDS011;21133;48.048;7.724;2024-01-27T04:25:00;1.43;;;0.80;;
34928;SDS011;21133;48.048;7.724;2024-01-27T04:27:29;0.80;;;0.80;;
34928;SDS011;21133;48.048;7.724;2024-01-27T04:29:55;0.77;;;0.77;;
34928;SDS011;21133;48.048;7.724;2024-01-27T04:32:22;1.13;;;1.13;;
34928;SDS011;21133;48.048;7.724;2024-01-27T04:34:48;0.77;;;0.77;;
34928;SDS011;21133;48.048;7.724;2024-01-27T04:37:14;1.80;;;1.80;;
34928;SDS011;21133;48.048;7.724;2024-01-27T04:39:40;1.50;;;1.00;;
34928;SDS011;21133;48.048;7.724;2024-01-27T04:42:06;1.60;;;1.30;;
34928;SDS011;21133;48.048;7.724;2024-01-27T04:44:32;2.10;;;0.90;;
34928;SDS011;21133;48.048;7.724;2024-01-27T04:46:58;1.67;;;1.23;;
34928;SDS011;21133;48.048;7.724;2024-01-27T04:49:25;1.40;;;1.40;;
34928;SDS011;21133;48.048;7.724;2024-01-27T04:51:51;1.10;;;1.10;;
34928;SDS011;21133;48.048;7.724;2024-01-27T04:54:17;1.47;;;0.93;;
34928;SDS011;21133;48.048;7.724;2024-01-27T04:56:43;0.87;;;0.87;;
34928;SDS011;21133;48.048;7.724;2024-01-27T04:59:09;1.57;;;1.33;;
34928;SDS011;21133;48.048;7.724;2024-01-27T05:01:35;3.33;;;1.30;;
34928;SDS011;21133;48.048;7.724;2024-01-27T05:04:01;1.17;;;1.17;;
34928;SDS011;21133;48.048;7.724;2024-01-27T05:06:27;1.53;;;1.07;;
34928;SDS011;21133;48.048;7.724;2024-01-27T05:08:53;1.07;;;1.00;;
34928;SDS011;21133;48.048;7.724;2024-01-27T05:11:25;1.57;;;1.33;;
34928;SDS011;21133;48.048;7.724;2024-01-27T05:13:51;1.60;;;1.60;;
34928;SDS011;21133;48.048;7.724;2024-01-27T05:16:17;1.20;;;1.20;;
34928;SDS011;21133;48.048;7.724;2024-01-27T05:18:43;1.37;;;1.37;;
34928;SDS011;21133;48.048;7.724;2024-01-27T05:21:09;2.27;;;2.17;;
34928;SDS011;21133;48.048;7.724;2024-01-27T05:23:35;2.17;;;2.07;;
34928;SDS011;21133;48.048;7.724;2024-01-27T05:26:01;1.30;;;1.30;;
34928;SDS011;21133;48.048;7.724;2024-01-27T05:28:27;2.47;;;1.83;;
34928;SDS011;21133;48.048;7.724;2024-01-27T05:30:53;1.00;;;1.00;;
34928;SDS011;21133;48.048;7.724;2024-01-27T05:33:19;2.40;;;1.60;;
34928;SDS011;21133;48.048;7.724;2024-01-27T05:35:45;1.83;;;1.70;;
34928;SDS011;21133;48.048;7.724;2024-01-27T05:38:11;1.30;;;1.30;;
34928;SDS011;21133;48.048;7.724;2024-01-27T05:40:37;2.40;;;1.30;;
34928;SDS011;21133;48.048;7.724;2024-01-27T05:43:03;1.10;;;1.10;;
34928;SDS011;21133;48.048;7.724;2024-01-27T05:45:29;1.40;;;1.30;;
34928;SDS011;21133;48.048;7.724;2024-01-27T05:47:56;2.77;;;1.10;;
34928;SDS011;21133;48.048;7.724;2024-01-27T05:50:22;1.40;;;1.40;;
34928;SDS011;21133;48.048;7.724;2024-01-27T05:52:48;2.80;;;1.30;;
34928;SDS011;21133;48.048;7.724;2024-01-27T05:55:14;1.30;;;1.30;;
34928;SDS011;21133;48.048;7.724;2024-01-27T05:57:41;1.10;;;1.10;;
34928;SDS011;21133;48.048;7.724;2024-01-27T06:00:07;0.97;;;0.97;;
34928;SDS011;21133;48.048;7.724;2024-01-27T06:02:34;3.33;;;1.07;;
34928;SDS011;21133;48.048;7.724;2024-01-27T06:05:01;2.77;;;1.07;;
34928;SDS011;21133;48.048;7.724;2024-01-27T06:07:27;1.57;;;1.47;;
34928;SDS011;21133;48.048;7.724;2024-01-27T06:09:53;0.80;;;0.80;;
34928;SDS011;21133;48.048;7.724;2024-01-27T06:12:19;1.87;;;1.00;;
34928;SDS011;21133;48.048;7.724;2024-01-27T06:14:45;1.10;;;1.10;;
34928;SDS011;21133;48.048;7.724;2024-01-27T06:17:11;1.57;;;1.57;;
34928;SDS011;21133;48.048;7.724;2024-01-27T06:19:39;1.10;;;1.10;;
34928;SDS011;21133;48.048;7.724;2024-01-27T06:22:05;1.37;;;1.37;;
34928;SDS011;21133;48.048;7.724;2024-01-27T06:24:31;1.77;;;1.67;;
34928;SDS011;21133;48.048;7.724;2024-01-27T06:26:57;1.90;;;1.90;;
34928;SDS011;21133;48.048;7.724;2024-01-27T06:29:23;1.10;;;1.10;;
34928;SDS011;21133;48.048;7.724;2024-01-27T06:31:51;1.30;;;1.30;;
34928;SDS011;21133;48.048;7.724;2024-01-27T06:34:18;1.37;;;1.37;;
34928;SDS011;21133;48.048;7.724;2024-01-27T06:36:44;2.73;;;2.73;;
34928;SDS011;21133;48.048;7.724;2024-01-27T06:39:10;2.53;;;2.53;;
34928;SDS011;21133;48.048;7.724;2024-01-27T06:41:36;3.00;;;2.90;;
34928;SDS011;21133;48.048;7.724;2024-01-27T06:44:02;2.83;;;2.83;;
34928;SDS011;21133;48.048;7.724;2024-01-27T06:46:29;2.50;;;2.50;;
34928;SDS011;21133;48.048;7.724;2024-01-27T06:48:54;3.37;;;3.10;;
34928;SDS011;21133;48.048;7.724;2024-01-27T06:51:20;2.33;;;2.33;;
34928;SDS011;21133;48.048;7.724;2024-01-27T06:53:46;3.47;;;2.47;;
34928;SDS011;21133;48.048;7.724;2024-01-27T06:56:13;2.47;;;2.37;;
34928;SDS011;21133;48.048;7.724;2024-01-27T06:58:39;1.93;;;1.90;;
34928;SDS011;21133;48.048;7.724;2024-01-27T07:01:06;1.60;;;1.60;;
34928;SDS011;21133;48.048;7.724;2024-01-27T07:03:32;1.80;;;1.70;;
34928;SDS011;21133;48.048;7.724;2024-01-27T07:05:58;1.93;;;1.83;;
34928;SDS011;21133;48.048;7.724;2024-01-27T07:08:27;1.93;;;1.83;;
34928;SDS011;21133;48.048;7.724;2024-01-27T07:10:54;4.77;;;1.50;;
34928;SDS011;21133;48.048;7.724;2024-01-27T07:13:20;3.67;;;2.10;;
34928;SDS011;21133;48.048;7.724;2024-01-27T07:15:46;2.10;;;1.97;;
34928;SDS011;21133;48.048;7.724;2024-01-27T07:18:12;2.20;;;2.10;;
34928;SDS011;21133;48.048;7.724;2024-01-27T07:20:40;1.80;;;1.80;;
34928;SDS011;21133;48.048;7.724;2024-01-27T07:23:06;3.10;;;2.93;;
34928;SDS011;21133;48.048;7.724;2024-01-27T07:25:35;1.97;;;1.97;;
34928;SDS011;21133;48.048;7.724;2024-01-27T07:28:01;2.70;;;2.50;;
34928;SDS011;21133;48.048;7.724;2024-01-27T07:30:27;2.60;;;2.50;;
34928;SDS011;21133;48.048;7.724;2024-01-27T07:32:54;2.60;;;2.40;;
34928;SDS011;21133;48.048;7.724;2024-01-27T07:35:20;2.37;;;2.37;;
34928;SDS011;21133;48.048;7.724;2024-01-27T07:37:45;2.97;;;2.70;;
34928;SDS011;21133;48.048;7.724;2024-01-27T07:40:12;2.43;;;2.27;;
34928;SDS011;21133;48.048;7.724;2024-01-27T07:42:38;1.70;;;1.60;;
34928;SDS011;21133;48.048;7.724;2024-01-27T07:45:04;2.13;;;2.03;;
34928;SDS011;21133;48.048;7.724;2024-01-27T07:47:30;2.73;;;2.63;;
34928;SDS011;21133;48.048;7.724;2024-01-27T07:49:56;1.63;;;1.63;;
34928;SDS011;21133;48.048;7.724;2024-01-27T07:52:22;5.33;;;2.10;;
34928;SDS011;21133;48.048;7.724;2024-01-27T07:54:48;1.83;;;1.83;;
34928;SDS011;21133;48.048;7.724;2024-01-27T07:57:14;2.43;;;2.33;;
34928;SDS011;21133;48.048;7.724;2024-01-27T07:59:40;3.93;;;3.57;;
34928;SDS011;21133;48.048;7.724;2024-01-27T08:02:06;6.17;;;5.57;;
34928;SDS011;21133;48.048;7.724;2024-01-27T08:04:32;6.30;;;3.87;;
34928;SDS011;21133;48.048;7.724;2024-01-27T08:06:58;95.10;;;28.03;;
34928;SDS011;21133;48.048;7.724;2024-01-27T08:09:24;167.73;;;45.10;;
34928;SDS011;21133;48.048;7.724;2024-01-27T08:11:50;15.63;;;7.40;;
34928;SDS011;21133;48.048;7.724;2024-01-27T08:14:19;1.97;;;1.93;;
34928;SDS011;21133;48.048;7.724;2024-01-27T08:16:46;2.70;;;2.50;;
34928;SDS011;21133;48.048;7.724;2024-01-27T08:19:12;1.80;;;1.80;;
34928;SDS011;21133;48.048;7.724;2024-01-27T08:21:38;2.03;;;1.57;;
34928;SDS011;21133;48.048;7.724;2024-01-27T08:24:04;2.40;;;2.23;;
34928;SDS011;21133;48.048;7.724;2024-01-27T08:26:30;1.83;;;1.73;;
34928;SDS011;21133;48.048;7.724;2024-01-27T08:28:56;2.17;;;2.17;;
34928;SDS011;21133;48.048;7.724;2024-01-27T08:31:23;5.37;;;4.87;;
34928;SDS011;21133;48.048;7.724;2024-01-27T08:33:49;4.87;;;4.53;;
34928;SDS011;21133;48.048;7.724;2024-01-27T08:36:15;4.07;;;3.47;;
34928;SDS011;21133;48.048;7.724;2024-01-27T08:38:41;4.07;;;3.77;;
34928;SDS011;21133;48.048;7.724;2024-01-27T08:41:07;9.37;;;4.77;;
34928;SDS011;21133;48.048;7.724;2024-01-27T08:43:33;5.27;;;4.77;;
34928;SDS011;21133;48.048;7.724;2024-01-27T08:45:59;5.00;;;4.60;;
34928;SDS011;21133;48.048;7.724;2024-01-27T08:48:25;5.40;;;5.10;;
34928;SDS011;21133;48.048;7.724;2024-01-27T08:50:51;6.83;;;6.20;;
34928;SDS011;21133;48.048;7.724;2024-01-27T08:53:17;16.83;;;8.30;;
34928;SDS011;21133;48.048;7.724;2024-01-27T08:55:43;20.37;;;12.37;;
34928;SDS011;21133;48.048;7.724;2024-01-27T08:58:09;18.93;;;12.03;;
34928;SDS011;21133;48.048;7.724;2024-01-27T09:00:35;15.87;;;10.53;;
34928;SDS011;21133;48.048;7.724;2024-01-27T09:03:01;12.17;;;9.77;;
34928;SDS011;21133;48.048;7.724;2024-01-27T09:05:28;11.70;;;9.40;;
34928;SDS011;21133;48.048;7.724;2024-01-27T09:07:54;34.03;;;20.90;;
34928;SDS011;21133;48.048;7.724;2024-01-27T09:10:20;19.83;;;12.63;;
34928;SDS011;21133;48.048;7.724;2024-01-27T09:12:46;11.90;;;9.47;;
34928;SDS011;21133;48.048;7.724;2024-01-27T09:15:12;5.80;;;5.40;;
34928;SDS011;21133;48.048;7.724;2024-01-27T09:17:38;4.60;;;4.20;;
34928;SDS011;21133;48.048;7.724;2024-01-27T09:20:05;4.27;;;4.07;;
34928;SDS011;21133;48.048;7.724;2024-01-27T09:22:31;6.13;;;5.57;;
34928;SDS011;21133;48.048;7.724;2024-01-27T09:24:57;7.23;;;5.10;;
34928;SDS011;21133;48.048;7.724;2024-01-27T09:27:23;10.83;;;7.77;;
34928;SDS011;21133;48.048;7.724;2024-01-27T09:29:49;5.17;;;4.77;;
34928;SDS011;21133;48.048;7.724;2024-01-27T09:32:15;7.77;;;4.50;;
34928;SDS011;21133;48.048;7.724;2024-01-27T09:34:41;3.87;;;3.57;;
34928;SDS011;21133;48.048;7.724;2024-01-27T09:37:07;3.80;;;3.50;;
34928;SDS011;21133;48.048;7.724;2024-01-27T09:39:32;3.30;;;2.90;;
34928;SDS011;21133;48.048;7.724;2024-01-27T09:41:59;3.37;;;2.00;;
34928;SDS011;21133;48.048;7.724;2024-01-27T09:44:26;7.18;;;3.30;;
34928;SDS011;21133;48.048;7.724;2024-01-27T09:46:52;4.57;;;2.30;;
34928;SDS011;21133;48.048;7.724;2024-01-27T09:49:19;2.13;;;2.03;;
34928;SDS011;21133;48.048;7.724;2024-01-27T09:51:45;2.07;;;1.97;;
34928;SDS011;21133;48.048;7.724;2024-01-27T09:54:11;2.50;;;2.10;;
34928;SDS011;21133;48.048;7.724;2024-01-27T09:56:37;9.33;;;2.90;;
34928;SDS011;21133;48.048;7.724;2024-01-27T09:59:04;2.13;;;2.03;;
34928;SDS011;21133;48.048;7.724;2024-01-27T10:01:30;3.07;;;2.33;;
34928;SDS011;21133;48.048;7.724;2024-01-27T10:03:57;10.63;;;2.57;;
34928;SDS011;21133;48.048;7.724;2024-01-27T10:06:23;4.50;;;3.23;;
34928;SDS011;21133;48.048;7.724;2024-01-27T10:08:54;2.47;;;2.37;;
34928;SDS011;21133;48.048;7.724;2024-01-27T10:11:20;2.90;;;2.50;;
34928;SDS011;21133;48.048;7.724;2024-01-27T10:13:56;2.47;;;2.37;;
34928;SDS011;21133;48.048;7.724;2024-01-27T10:16:24;2.93;;;2.53;;
34928;SDS011;21133;48.048;7.724;2024-01-27T10:19:03;3.47;;;3.17;;
34928;SDS011;21133;48.048;7.724;2024-01-27T10:21:29;9.37;;;2.43;;
34928;SDS011;21133;48.048;7.724;2024-01-27T10:23:55;2.23;;;2.03;;
34928;SDS011;21133;48.048;7.724;2024-01-27T10:26:21;5.07;;;2.03;;
34928;SDS011;21133;48.048;7.724;2024-01-27T10:28:56;2.20;;;2.00;;
34928;SDS011;21133;48.048;7.724;2024-01-27T10:31:26;11.17;;;2.50;;
34928;SDS011;21133;48.048;7.724;2024-01-27T10:33:52;6.10;;;3.00;;
34928;SDS011;21133;48.048;7.724;2024-01-27T10:36:18;7.47;;;2.20;;
34928;SDS011;21133;48.048;7.724;2024-01-27T10:38:45;3.00;;;2.77;;
34928;SDS011;21133;48.048;7.724;2024-01-27T10:41:11;5.33;;;2.53;;
34928;SDS011;21133;48.048;7.724;2024-01-27T10:43:37;4.60;;;2.67;;
34928;SDS011;21133;48.048;7.724;2024-01-27T10:46:07;3.10;;;2.20;;
34928;SDS011;21133;48.048;7.724;2024-01-27T10:48:36;3.70;;;2.50;;
34928;SDS011;21133;48.048;7.724;2024-01-27T10:51:09;5.40;;;1.83;;
34928;SDS011;21133;48.048;7.724;2024-01-27T10:53:35;1.73;;;1.73;;
34928;SDS011;21133;48.048;7.724;2024-01-27T10:56:03;2.47;;;2.20;;
34928;SDS011;21133;48.048;7.724;2024-01-27T10:58:34;5.03;;;2.63;;
34928;SDS011;21133;48.048;7.724;2024-01-27T11:01:09;2.73;;;2.43;;
34928;SDS011;21133;48.048;7.724;2024-01-27T11:03:40;6.03;;;2.60;;
34928;SDS011;21133;48.048;7.724;2024-01-27T11:06:06;4.70;;;3.77;;
34928;SDS011;21133;48.048;7.724;2024-01-27T11:08:36;2.67;;;2.47;;
34928;SDS011;21133;48.048;7.724;2024-01-27T11:11:03;5.80;;;2.70;;
34928;SDS011;21133;48.048;7.724;2024-01-27T11:13:29;4.57;;;3.87;;
34928;SDS011;21133;48.048;7.724;2024-01-27T11:15:56;2.23;;;2.13;;
34928;SDS011;21133;48.048;7.724;2024-01-27T11:18:23;7.53;;;2.73;;
34928;SDS011;21133;48.048;7.724;2024-01-27T11:20:52;4.33;;;2.00;;
34928;SDS011;21133;48.048;7.724;2024-01-27T11:23:18;3.33;;;2.30;;
34928;SDS011;21133;48.048;7.724;2024-01-27T11:25:44;3.60;;;2.63;;
34928;SDS011;21133;48.048;7.724;2024-01-27T11:28:11;4.43;;;3.53;;
34928;SDS011;21133;48.048;7.724;2024-01-27T11:30:39;4.30;;;3.13;;
34928;SDS011;21133;48.048;7.724;2024-01-27T11:33:05;2.47;;;2.37;;
34928;SDS011;21133;48.048;7.724;2024-01-27T11:35:31;2.47;;;2.27;;
34928;SDS011;21133;48.048;7.724;2024-01-27T11:37:57;3.90;;;2.30;;
34928;SDS011;21133;48.048;7.724;2024-01-27T11:40:23;2.00;;;1.90;;
34928;SDS011;21133;48.048;7.724;2024-01-27T11:42:56;1.97;;;1.87;;
34928;SDS011;21133;48.048;7.724;2024-01-27T11:45:22;1.90;;;1.60;;
34928;SDS011;21133;48.048;7.724;2024-01-27T11:47:48;3.47;;;1.50;;
34928;SDS011;21133;48.048;7.724;2024-01-27T11:50:16;6.03;;;1.40;;
34928;SDS011;21133;48.048;7.724;2024-01-27T11:52:42;5.80;;;1.37;;
34928;SDS011;21133;48.048;7.724;2024-01-27T11:55:08;4.10;;;2.10;;
34928;SDS011;21133;48.048;7.724;2024-01-27T11:57:34;1.60;;;1.50;;
34928;SDS011;21133;48.048;7.724;2024-01-27T12:00:00;5.83;;;1.77;;
34928;SDS011;21133;48.048;7.724;2024-01-27T12:02:26;2.70;;;2.60;;
34928;SDS011;21133;48.048;7.724;2024-01-27T12:04:52;4.90;;;1.50;;
34928;SDS011;21133;48.048;7.724;2024-01-27T12:07:19;4.43;;;2.10;;
34928;SDS011;21133;48.048;7.724;2024-01-27T12:09:46;5.00;;;2.27;;
34928;SDS011;21133;48.048;7.724;2024-01-27T12:12:12;11.30;;;2.10;;
34928;SDS011;21133;48.048;7.724;2024-01-27T12:14:45;5.70;;;2.80;;
34928;SDS011;21133;48.048;7.724;2024-01-27T12:17:11;2.03;;;1.80;;
34928;SDS011;21133;48.048;7.724;2024-01-27T12:19:38;7.63;;;1.70;;
34928;SDS011;21133;48.048;7.724;2024-01-27T12:22:04;2.50;;;2.07;;
34928;SDS011;21133;48.048;7.724;2024-01-27T12:24:31;1.70;;;1.60;;
34928;SDS011;21133;48.048;7.724;2024-01-27T12:26:57;5.17;;;1.67;;
34928;SDS011;21133;48.048;7.724;2024-01-27T12:29:23;4.87;;;2.53;;
34928;SDS011;21133;48.048;7.724;2024-01-27T12:31:49;2.73;;;2.53;;
34928;SDS011;21133;48.048;7.724;2024-01-27T12:34:15;3.53;;;2.20;;
34928;SDS011;21133;48.048;7.724;2024-01-27T12:36:42;8.43;;;2.47;;
34928;SDS011;21133;48.048;7.724;2024-01-27T12:39:08;2.83;;;2.23;;
34928;SDS011;21133;48.048;7.724;2024-01-27T12:41:35;2.60;;;2.40;;
34928;SDS011;21133;48.048;7.724;2024-01-27T12:44:01;3.73;;;2.83;;
34928;SDS011;21133;48.048;7.724;2024-01-27T12:46:30;2.17;;;2.03;;
34928;SDS011;21133;48.048;7.724;2024-01-27T12:48:56;5.03;;;2.27;;
34928;SDS011;21133;48.048;7.724;2024-01-27T12:51:22;3.30;;;2.37;;
34928;SDS011;21133;48.048;7.724;2024-01-27T12:53:49;5.20;;;1.77;;
34928;SDS011;21133;48.048;7.724;2024-01-27T12:56:15;12.50;;;2.97;;
34928;SDS011;21133;48.048;7.724;2024-01-27T12:58:41;2.00;;;2.00;;
34928;SDS011;21133;48.048;7.724;2024-01-27T13:01:08;2.60;;;2.40;;
34928;SDS011;21133;48.048;7.724;2024-01-27T13:03:34;7.40;;;2.37;;
34928;SDS011;21133;48.048;7.724;2024-01-27T13:06:00;3.23;;;2.87;;
34928;SDS011;21133;48.048;7.724;2024-01-27T13:08:27;8.00;;;2.87;;
34928;SDS011;21133;48.048;7.724;2024-01-27T13:10:53;3.13;;;2.47;;
34928;SDS011;21133;48.048;7.724;2024-01-27T13:13:19;3.83;;;2.03;;
34928;SDS011;21133;48.048;7.724;2024-01-27T13:15:45;3.33;;;2.30;;
34928;SDS011;21133;48.048;7.724;2024-01-27T13:18:11;2.50;;;1.70;;
34928;SDS011;21133;48.048;7.724;2024-01-27T13:20:37;6.70;;;1.97;;
34928;SDS011;21133;48.048;7.724;2024-01-27T13:23:05;4.30;;;2.53;;
34928;SDS011;21133;48.048;7.724;2024-01-27T13:25:31;3.10;;;2.27;;
34928;SDS011;21133;48.048;7.724;2024-01-27T13:27:57;5.50;;;2.17;;
34928;SDS011;21133;48.048;7.724;2024-01-27T13:30:23;3.50;;;2.30;;
34928;SDS011;21133;48.048;7.724;2024-01-27T13:32:50;6.23;;;4.93;;
34928;SDS011;21133;48.048;7.724;2024-01-27T13:35:16;2.83;;;2.53;;
34928;SDS011;21133;48.048;7.724;2024-01-27T13:37:42;3.00;;;1.77;;
34928;SDS011;21133;48.048;7.724;2024-01-27T13:40:08;2.83;;;1.73;;
34928;SDS011;21133;48.048;7.724;2024-01-27T13:42:35;3.60;;;1.47;;
34928;SDS011;21133;48.048;7.724;2024-01-27T13:45:01;1.80;;;1.40;;
34928;SDS011;21133;48.048;7.724;2024-01-27T13:47:27;2.50;;;2.40;;
34928;SDS011;21133;48.048;7.724;2024-01-27T13:49:53;3.10;;;1.83;;
34928;SDS011;21133;48.048;7.724;2024-01-27T13:52:19;1.93;;;1.73;;
34928;SDS011;21133;48.048;7.724;2024-01-27T13:54:45;3.33;;;2.00;;
34928;SDS011;21133;48.048;7.724;2024-01-27T13:57:11;9.00;;;2.60;;
34928;SDS011;21133;48.048;7.724;2024-01-27T13:59:37;1.50;;;1.40;;
34928;SDS011;21133;48.048;7.724;2024-01-27T14:02:03;7.07;;;4.70;;
34928;SDS011;21133;48.048;7.724;2024-01-27T14:04:29;2.00;;;1.83;;
34928;SDS011;21133;48.048;7.724;2024-01-27T14:06:55;1.83;;;1.63;;
34928;SDS011;21133;48.048;7.724;2024-01-27T14:09:22;9.70;;;1.73;;
34928;SDS011;21133;48.048;7.724;2024-01-27T14:11:48;1.33;;;1.20;;
34928;SDS011;21133;48.048;7.724;2024-01-27T14:14:14;2.23;;;2.03;;
34928;SDS011;21133;48.048;7.724;2024-01-27T14:16:42;2.80;;;1.57;;
34928;SDS011;21133;48.048;7.724;2024-01-27T14:19:08;3.60;;;2.27;;
34928;SDS011;21133;48.048;7.724;2024-01-27T14:21:34;5.93;;;1.97;;
34928;SDS011;21133;48.048;7.724;2024-01-27T14:24:01;9.63;;;4.10;;
34928;SDS011;21133;48.048;7.724;2024-01-27T14:26:30;4.40;;;2.30;;
34928;SDS011;21133;48.048;7.724;2024-01-27T14:28:57;7.13;;;1.73;;
34928;SDS011;21133;48.048;7.724;2024-01-27T14:31:23;1.47;;;1.33;;
34928;SDS011;21133;48.048;7.724;2024-01-27T14:33:49;2.43;;;2.20;;
34928;SDS011;21133;48.048;7.724;2024-01-27T14:36:15;6.23;;;2.20;;
34928;SDS011;21133;48.048;7.724;2024-01-27T14:38:41;1.70;;;1.53;;
34928;SDS011;21133;48.048;7.724;2024-01-27T14:41:07;3.57;;;2.37;;